createdAt,value
2018-09-20T00:00:09.295Z,6.50
2018-09-20T00:02:37.515Z,5.80
2018-09-20T00:05:05.731Z,5.73
2018-09-20T00:07:34.044Z,5.63
2018-09-20T00:10:02.310Z,5.57
2018-09-20T00:12:30.533Z,5.83
2018-09-20T00:14:58.766Z,5.83
2018-09-20T00:17:26.996Z,5.70
2018-09-20T00:19:55.199Z,5.40
2018-09-20T00:22:23.430Z,6.03
2018-09-20T00:24:51.663Z,5.73
2018-09-20T00:27:19.913Z,6.23
2018-09-20T00:29:48.148Z,5.60
2018-09-20T00:32:16.367Z,5.60
2018-09-20T00:34:44.600Z,5.63
2018-09-20T00:37:12.808Z,6.07
2018-09-20T00:39:41.039Z,5.97
2018-09-20T00:42:09.227Z,6.47
2018-09-20T00:44:37.602Z,6.03
2018-09-20T00:47:05.825Z,5.40
2018-09-20T00:49:34.039Z,6.10
2018-09-20T00:52:02.304Z,5.97
2018-09-20T00:54:30.548Z,5.97
2018-09-20T00:56:58.780Z,5.97
2018-09-20T00:59:27.002Z,5.97
2018-09-20T01:01:55.219Z,6.40
2018-09-20T01:04:23.489Z,5.97
2018-09-20T01:06:51.688Z,5.90
2018-09-20T01:09:19.927Z,5.93
2018-09-20T01:11:48.144Z,5.67
2018-09-20T01:14:16.389Z,6.27
2018-09-20T01:16:44.608Z,5.97
2018-09-20T01:19:12.924Z,6.03
2018-09-20T01:21:41.130Z,6.00
2018-09-20T01:24:09.352Z,5.83
2018-09-20T01:26:37.576Z,6.27
2018-09-20T01:29:05.807Z,6.40
2018-09-20T01:31:34.036Z,5.83
2018-09-20T01:34:02.272Z,5.87
2018-09-20T01:36:30.475Z,6.47
2018-09-20T01:38:58.726Z,6.57
2018-09-20T01:41:26.934Z,5.10
2018-09-20T01:43:55.621Z,5.93
2018-09-20T01:46:23.843Z,5.73
2018-09-20T01:48:52.168Z,7.03
2018-09-20T01:51:20.412Z,7.20
2018-09-20T01:53:48.659Z,6.17
2018-09-20T01:56:17.010Z,6.07
2018-09-20T01:58:46.279Z,5.33
2018-09-20T02:01:14.484Z,5.33
2018-09-20T02:03:42.700Z,5.57
2018-09-20T02:06:11.426Z,5.90
2018-09-20T02:08:39.664Z,6.00
2018-09-20T02:11:07.888Z,6.00
2018-09-20T02:13:36.136Z,5.60
2018-09-20T02:16:04.422Z,5.90
2018-09-20T02:18:32.740Z,5.37
2018-09-20T02:21:00.963Z,5.77
2018-09-20T02:23:29.216Z,6.10
2018-09-20T02:25:57.452Z,6.33
2018-09-20T02:28:25.700Z,6.07
2018-09-20T02:30:53.921Z,5.50
2018-09-20T02:33:22.124Z,5.50
2018-09-20T02:35:50.357Z,5.10
2018-09-20T02:38:18.567Z,5.57
2018-09-20T02:40:46.780Z,5.40
2018-09-20T02:43:14.995Z,5.80
2018-09-20T02:45:43.262Z,5.60
2018-09-20T02:48:11.483Z,6.07
2018-09-20T02:50:39.747Z,5.53
2018-09-20T02:53:07.952Z,6.20
2018-09-20T02:55:36.190Z,5.60
2018-09-20T02:58:04.422Z,5.47
2018-09-20T03:00:32.760Z,5.70
2018-09-20T03:03:00.993Z,5.90
2018-09-20T03:05:29.205Z,5.53
2018-09-20T03:07:58.301Z,5.80
2018-09-20T03:10:26.534Z,5.93
2018-09-20T03:12:54.780Z,5.73
2018-09-20T03:15:22.991Z,5.97
2018-09-20T03:17:51.283Z,5.90
2018-09-20T03:20:19.537Z,6.20
2018-09-20T03:22:47.759Z,6.23
2018-09-20T03:25:16.046Z,5.93
2018-09-20T03:27:44.303Z,6.53
2018-09-20T03:30:12.563Z,6.53
2018-09-20T03:32:40.778Z,6.40
2018-09-20T03:35:09.020Z,6.30
2018-09-20T03:37:37.276Z,6.43
2018-09-20T03:40:05.559Z,6.40
2018-09-20T03:42:33.775Z,6.20
2018-09-20T03:45:02.069Z,7.10
2018-09-20T03:47:30.295Z,6.87
2018-09-20T03:49:58.549Z,6.30
2018-09-20T03:52:26.755Z,6.93
2018-09-20T03:54:55.001Z,6.80
2018-09-20T03:57:23.205Z,6.57
2018-09-20T03:59:51.454Z,6.70
2018-09-20T04:02:19.667Z,6.77
2018-09-20T04:04:47.907Z,6.63
2018-09-20T04:07:16.268Z,6.83
2018-09-20T04:09:44.525Z,7.03
2018-09-20T04:12:12.745Z,7.50
2018-09-20T04:14:40.992Z,7.00
2018-09-20T04:17:09.199Z,6.83
2018-09-20T04:19:37.519Z,6.77
2018-09-20T04:22:05.737Z,6.43
2018-09-20T04:24:33.989Z,7.17
2018-09-20T04:27:02.203Z,7.13
2018-09-20T04:29:30.496Z,7.30
2018-09-20T04:31:58.884Z,7.20
2018-09-20T04:34:27.113Z,7.50
2018-09-20T04:36:55.351Z,8.40
2018-09-20T04:39:23.569Z,7.90
2018-09-20T04:41:51.842Z,8.07
2018-09-20T04:44:20.073Z,7.90
2018-09-20T04:46:48.296Z,8.10
2018-09-20T04:49:16.501Z,7.90
2018-09-20T04:51:44.809Z,7.70
2018-09-20T04:54:13.058Z,7.97
2018-09-20T04:56:41.320Z,7.70
2018-09-20T04:59:09.562Z,7.73
2018-09-20T05:01:37.804Z,7.47
2018-09-20T05:04:06.053Z,7.73
2018-09-20T05:06:34.357Z,7.83
2018-09-20T05:09:02.585Z,7.70
2018-09-20T05:11:30.817Z,7.53
2018-09-20T05:13:59.045Z,7.67
2018-09-20T05:16:27.417Z,7.40
2018-09-20T05:18:55.614Z,7.40
2018-09-20T05:21:23.856Z,7.17
2018-09-20T05:23:52.085Z,7.30
2018-09-20T05:26:20.352Z,7.20
2018-09-20T05:28:49.328Z,7.47
2018-09-20T05:31:17.571Z,7.20
2018-09-20T05:33:45.783Z,7.83
2018-09-20T05:36:14.014Z,7.47
2018-09-20T05:38:42.222Z,7.10
2018-09-20T05:41:10.470Z,7.50
2018-09-20T05:43:38.731Z,7.17
2018-09-20T05:46:07.212Z,7.40
2018-09-20T05:48:35.463Z,7.23
2018-09-20T05:51:03.704Z,7.80
2018-09-20T05:53:31.950Z,7.27
2018-09-20T05:56:01.695Z,7.73
2018-09-20T05:58:30.028Z,7.63
2018-09-20T06:00:58.312Z,6.87
2018-09-20T06:03:26.514Z,7.70
2018-09-20T06:05:54.883Z,7.10
2018-09-20T06:08:23.203Z,7.50
2018-09-20T06:10:51.447Z,7.57
2018-09-20T06:13:19.761Z,7.57
2018-09-20T06:15:48.066Z,7.20
2018-09-20T06:18:16.279Z,7.23
2018-09-20T06:20:44.491Z,7.27
2018-09-20T06:23:12.780Z,7.07
2018-09-20T06:25:41.017Z,7.37
2018-09-20T06:28:09.253Z,7.70
2018-09-20T06:30:38.445Z,7.50
2018-09-20T06:33:06.687Z,6.73
2018-09-20T06:35:34.962Z,7.27
2018-09-20T06:38:03.235Z,7.20
2018-09-20T06:40:31.435Z,7.10
2018-09-20T06:42:59.673Z,6.87
2018-09-20T06:45:27.872Z,7.10
2018-09-20T06:47:56.160Z,7.00
2018-09-20T06:50:24.436Z,7.47
2018-09-20T06:52:52.647Z,7.30
2018-09-20T06:55:20.851Z,7.20
2018-09-20T06:57:49.077Z,7.37
2018-09-20T07:00:17.296Z,7.33
2018-09-20T07:02:45.546Z,6.83
2018-09-20T07:05:13.776Z,7.30
2018-09-20T07:07:42.008Z,7.40
2018-09-20T07:10:10.214Z,6.70
2018-09-20T07:12:38.435Z,7.00
2018-09-20T07:15:07.324Z,7.63
2018-09-20T07:17:35.555Z,7.47
2018-09-20T07:20:03.791Z,8.83
2018-09-20T07:22:32.043Z,7.27
2018-09-20T07:25:00.261Z,6.17
2018-09-20T07:27:28.527Z,6.00
2018-09-20T07:29:56.750Z,5.92
2018-09-20T07:32:24.955Z,5.87
2018-09-20T07:34:53.175Z,5.45
2018-09-20T07:37:21.405Z,5.58
2018-09-20T07:39:49.612Z,5.50
2018-09-20T07:42:17.853Z,5.05
2018-09-20T07:44:46.066Z,4.87
2018-09-20T07:47:14.292Z,5.12
2018-09-20T07:49:42.513Z,4.85
2018-09-20T07:52:10.775Z,5.10
2018-09-20T07:54:38.989Z,5.17
2018-09-20T07:57:07.570Z,5.03
2018-09-20T07:59:35.814Z,5.03
2018-09-20T08:02:04.161Z,5.17
2018-09-20T08:04:32.356Z,5.15
2018-09-20T08:07:00.629Z,4.67
2018-09-20T08:09:28.824Z,4.37
2018-09-20T08:11:57.056Z,4.50
2018-09-20T08:14:25.314Z,4.60
2018-09-20T08:16:53.522Z,3.92
2018-09-20T08:19:22.937Z,4.22
2018-09-20T08:21:51.149Z,4.37
2018-09-20T08:24:19.416Z,4.30
2018-09-20T08:26:47.627Z,3.72
2018-09-20T08:29:15.863Z,3.83
2018-09-20T08:31:44.145Z,3.95
2018-09-20T08:34:12.388Z,4.05
2018-09-20T08:36:40.627Z,4.05
2018-09-20T08:39:10.475Z,4.42
2018-09-20T08:41:38.775Z,3.60
2018-09-20T08:44:07.527Z,3.22
2018-09-20T08:46:35.749Z,3.77
2018-09-20T08:49:03.980Z,3.10
2018-09-20T08:51:32.225Z,2.83
2018-09-20T08:54:00.535Z,2.95
2018-09-20T08:56:28.768Z,2.95
2018-09-20T08:58:56.999Z,3.98
2018-09-20T09:01:25.212Z,3.62
2018-09-20T09:03:53.478Z,3.58
2018-09-20T09:06:21.675Z,3.87
2018-09-20T09:08:49.903Z,3.58
2018-09-20T09:11:18.109Z,3.35
2018-09-20T09:13:46.331Z,3.45
2018-09-20T09:16:14.610Z,3.50
2018-09-20T09:18:42.852Z,3.37
2018-09-20T09:21:11.200Z,4.12
2018-09-20T09:23:39.431Z,3.15
2018-09-20T09:26:07.656Z,3.37
2018-09-20T09:28:36.050Z,3.27
2018-09-20T09:31:04.258Z,3.12
2018-09-20T09:33:32.534Z,5.40
2018-09-20T09:36:00.892Z,3.40
2018-09-20T09:38:29.109Z,3.30
2018-09-20T09:40:57.356Z,3.65
2018-09-20T09:43:25.670Z,3.70
2018-09-20T09:45:53.915Z,3.27
2018-09-20T09:48:22.144Z,3.17
2018-09-20T09:50:50.385Z,3.52
2018-09-20T09:53:18.595Z,3.30
2018-09-20T09:55:46.852Z,3.62
2018-09-20T09:58:15.215Z,3.98
2018-09-20T10:00:43.544Z,3.58
2018-09-20T10:03:11.787Z,3.72
2018-09-20T10:05:40.016Z,3.22
2018-09-20T10:08:08.627Z,3.08
2018-09-20T10:10:36.854Z,3.42
2018-09-20T10:13:05.368Z,4.22
2018-09-20T10:15:33.586Z,3.40
2018-09-20T10:18:02.223Z,3.47
2018-09-20T10:20:30.503Z,3.40
2018-09-20T10:22:58.704Z,3.80
2018-09-20T10:25:26.968Z,3.67
2018-09-20T10:27:55.186Z,3.92
2018-09-20T10:30:23.399Z,3.90
2018-09-20T10:32:51.652Z,3.40
2018-09-20T10:35:21.329Z,3.72
2018-09-20T10:37:49.533Z,3.52
2018-09-20T10:40:17.845Z,3.80
2018-09-20T10:42:46.047Z,3.45
2018-09-20T10:45:14.301Z,5.95
2018-09-20T10:47:42.541Z,4.42
2018-09-20T10:50:10.751Z,4.28
2018-09-20T10:52:39.118Z,4.58
2018-09-20T10:55:07.344Z,3.95
2018-09-20T10:57:35.751Z,3.80
2018-09-20T11:00:04.003Z,4.20
2018-09-20T11:02:32.296Z,5.62
2018-09-20T11:05:00.532Z,4.20
2018-09-20T11:07:28.727Z,4.33
2018-09-20T11:09:56.975Z,4.00
2018-09-20T11:12:25.223Z,4.25
2018-09-20T11:14:53.489Z,4.10
2018-09-20T11:17:21.811Z,3.58
2018-09-20T11:19:50.044Z,4.33
2018-09-20T11:22:18.302Z,4.10
2018-09-20T11:24:46.532Z,3.70
2018-09-20T11:27:14.782Z,4.40
2018-09-20T11:29:42.996Z,4.62
2018-09-20T11:32:11.231Z,4.20
2018-09-20T11:34:39.427Z,4.45
2018-09-20T11:37:07.657Z,3.90
2018-09-20T11:39:35.872Z,4.53
2018-09-20T11:42:04.114Z,4.25
2018-09-20T11:44:32.328Z,4.10
2018-09-20T11:47:00.615Z,4.40
2018-09-20T11:49:28.840Z,4.17
2018-09-20T11:51:57.071Z,4.58
2018-09-20T11:54:25.305Z,4.30
2018-09-20T11:56:53.550Z,4.47
2018-09-20T11:59:21.765Z,4.00
2018-09-20T12:01:50.060Z,4.40
2018-09-20T12:04:18.304Z,4.42
2018-09-20T12:06:46.548Z,4.40
2018-09-20T12:09:14.749Z,3.60
2018-09-20T12:11:43.012Z,4.30
2018-09-20T12:14:11.256Z,4.10
2018-09-20T12:16:39.471Z,6.20
2018-09-20T12:19:07.706Z,4.58
2018-09-20T12:21:35.949Z,3.95
2018-09-20T12:24:04.167Z,4.25
2018-09-20T12:26:32.444Z,4.17
2018-09-20T12:29:00.685Z,4.37
2018-09-20T12:31:29.055Z,4.47
2018-09-20T12:33:57.263Z,4.10
2018-09-20T12:36:25.487Z,4.33
2018-09-20T12:38:53.790Z,3.75
2018-09-20T12:41:21.949Z,5.47
2018-09-20T12:43:50.183Z,3.92
2018-09-20T12:46:18.411Z,4.12
2018-09-20T12:48:46.644Z,4.30
2018-09-20T12:51:14.904Z,4.33
2018-09-20T12:53:43.115Z,4.50
2018-09-20T12:56:11.431Z,3.60
2018-09-20T12:58:45.912Z,3.87
2018-09-20T13:01:14.479Z,4.05
2018-09-20T13:03:42.690Z,7.22
2018-09-20T13:06:10.930Z,4.10
2018-09-20T13:08:39.177Z,3.90
2018-09-20T13:11:07.469Z,3.90
2018-09-20T13:13:35.724Z,4.03
2018-09-20T13:16:03.982Z,4.53
2018-09-20T13:18:32.217Z,3.85
2018-09-20T13:21:00.431Z,4.17
2018-09-20T13:23:28.714Z,4.20
2018-09-20T13:25:56.976Z,3.85
2018-09-20T13:28:25.220Z,4.25
2018-09-20T13:30:53.427Z,3.80
2018-09-20T13:33:21.723Z,4.20
2018-09-20T13:35:49.933Z,4.00
2018-09-20T13:38:18.371Z,4.03
2018-09-20T13:40:46.567Z,4.28
2018-09-20T13:43:14.900Z,4.30
2018-09-20T13:45:43.161Z,4.40
2018-09-20T13:48:11.499Z,5.20
2018-09-20T13:50:39.736Z,4.30
2018-09-20T13:53:07.998Z,4.08
2018-09-20T13:55:36.223Z,4.10
2018-09-20T13:58:04.625Z,4.15
2018-09-20T14:00:32.912Z,3.80
2018-09-20T14:03:01.146Z,4.20
2018-09-20T14:05:29.401Z,5.60
2018-09-20T14:07:57.695Z,6.33
2018-09-20T14:10:26.059Z,6.45
2018-09-20T14:12:54.304Z,4.40
2018-09-20T14:15:22.571Z,4.12
2018-09-20T14:17:50.868Z,3.95
2018-09-20T14:20:19.091Z,3.85
2018-09-20T14:22:47.317Z,4.50
2018-09-20T14:25:15.559Z,4.28
2018-09-20T14:27:43.787Z,4.12
2018-09-20T14:30:12.064Z,3.75
2018-09-20T14:32:40.285Z,4.00
2018-09-20T14:35:08.554Z,5.00
2018-09-20T14:37:36.791Z,3.72
2018-09-20T14:40:05.028Z,4.55
2018-09-20T14:42:33.499Z,4.30
2018-09-20T14:45:01.741Z,4.30
2018-09-20T14:47:29.942Z,4.30
2018-09-20T14:49:58.159Z,3.87
2018-09-20T14:52:26.594Z,4.12
2018-09-20T14:54:54.842Z,4.30
2018-09-20T14:57:23.057Z,4.05
2018-09-20T14:59:51.290Z,4.50
2018-09-20T15:02:19.603Z,4.58
2018-09-20T15:04:47.792Z,4.58
2018-09-20T15:07:16.007Z,4.87
2018-09-20T15:09:44.210Z,3.72
2018-09-20T15:12:12.453Z,4.47
2018-09-20T15:14:40.655Z,3.60
2018-09-20T15:17:08.921Z,3.92
2018-09-20T15:19:37.142Z,4.28
2018-09-20T15:22:05.356Z,3.70
2018-09-20T15:24:33.681Z,4.22
2018-09-20T15:27:01.887Z,4.20
2018-09-20T15:29:31.382Z,4.78
2018-09-20T15:31:59.773Z,4.55
2018-09-20T15:34:27.991Z,4.58
2018-09-20T15:36:56.248Z,4.50
2018-09-20T15:39:24.482Z,4.15
2018-09-20T15:41:52.734Z,3.95
2018-09-20T15:44:20.952Z,4.25
2018-09-20T15:46:49.233Z,4.60
2018-09-20T15:49:17.459Z,5.12
2018-09-20T15:51:45.739Z,5.35
2018-09-20T15:54:13.987Z,5.22
2018-09-20T15:56:42.200Z,6.22
2018-09-20T15:59:10.399Z,6.37
2018-09-20T16:01:38.610Z,6.00
2018-09-20T16:04:06.861Z,5.97
2018-09-20T16:06:35.099Z,5.40
2018-09-20T16:09:04.023Z,5.10
2018-09-20T16:11:32.271Z,5.00
2018-09-20T16:14:00.545Z,5.00
2018-09-20T16:16:28.821Z,4.42
2018-09-20T16:18:57.125Z,4.62
2018-09-20T16:21:25.344Z,4.33
2018-09-20T16:23:53.630Z,4.65
2018-09-20T16:26:21.892Z,4.25
2018-09-20T16:29:00.630Z,4.72
2018-09-20T16:32:17.175Z,4.45
2018-09-20T16:35:06.192Z,4.50
2018-09-20T16:37:51.027Z,4.90
2018-09-20T16:40:20.096Z,4.78
2018-09-20T16:42:50.213Z,4.40
2018-09-20T16:45:18.433Z,4.95
2018-09-20T16:47:46.689Z,5.05
2018-09-20T16:50:14.900Z,4.85
2018-09-20T16:52:43.127Z,4.85
2018-09-20T16:55:11.416Z,6.05
2018-09-20T16:57:39.632Z,6.28
2018-09-20T17:00:09.154Z,7.05
2018-09-20T17:02:37.481Z,8.48
2018-09-20T17:05:05.726Z,7.12
2018-09-20T17:07:33.996Z,6.70
2018-09-20T17:10:02.224Z,6.28
2018-09-20T17:12:30.424Z,8.98
2018-09-20T17:14:58.944Z,8.45
2018-09-20T17:17:27.064Z,9.25
2018-09-20T17:19:55.295Z,8.80
2018-09-20T17:22:23.530Z,8.33
2018-09-20T17:24:52.869Z,7.40
2018-09-20T17:27:21.075Z,7.95
2018-09-20T17:29:49.300Z,7.25
2018-09-20T17:32:17.640Z,6.58
2018-09-20T17:34:46.138Z,7.35
2018-09-20T17:37:14.936Z,7.85
2018-09-20T17:39:43.988Z,9.05
2018-09-20T17:42:12.950Z,8.27
2018-09-20T17:44:41.222Z,9.53
2018-09-20T17:47:09.483Z,9.37
2018-09-20T17:49:37.787Z,9.63
2018-09-20T17:52:06.207Z,9.33
2018-09-20T17:54:35.872Z,9.13
2018-09-20T17:57:04.061Z,8.67
2018-09-20T17:59:32.315Z,8.93
2018-09-20T18:02:00.544Z,8.13
2018-09-20T18:04:28.761Z,8.10
2018-09-20T18:06:57.095Z,7.30
2018-09-20T18:09:25.288Z,7.50
2018-09-20T18:11:53.527Z,8.20
2018-09-20T18:14:21.744Z,8.13
2018-09-20T18:16:49.973Z,7.50
2018-09-20T18:19:18.207Z,7.57
2018-09-20T18:21:46.455Z,7.27
2018-09-20T18:24:14.685Z,8.13
2018-09-20T18:26:42.935Z,7.77
2018-09-20T18:29:11.154Z,7.37
2018-09-20T18:31:39.380Z,7.57
2018-09-20T18:34:07.682Z,8.20
2018-09-20T18:36:35.929Z,7.90
2018-09-20T18:39:05.977Z,7.80
2018-09-20T18:41:34.235Z,7.43
2018-09-20T18:44:02.448Z,7.60
2018-09-20T18:46:30.722Z,7.57
2018-09-20T18:48:58.919Z,7.47
2018-09-20T18:51:27.151Z,8.23
2018-09-20T18:53:55.382Z,7.20
2018-09-20T18:56:23.651Z,7.73
2018-09-20T18:58:51.920Z,7.80
2018-09-20T19:01:20.181Z,7.70
2018-09-20T19:03:48.407Z,7.90
2018-09-20T19:06:16.652Z,7.87
2018-09-20T19:08:44.872Z,8.10
2018-09-20T19:11:13.091Z,8.83
2018-09-20T19:13:41.376Z,8.43
2018-09-20T19:16:09.613Z,8.20
2018-09-20T19:18:37.900Z,8.40
2018-09-20T19:21:06.102Z,8.53
2018-09-20T19:23:34.337Z,8.90
2018-09-20T19:26:02.583Z,8.73
2018-09-20T19:28:30.827Z,8.90
2018-09-20T19:30:59.071Z,8.57
2018-09-20T19:33:27.305Z,9.20
2018-09-20T19:35:55.522Z,8.77
2018-09-20T19:38:23.784Z,9.00
2018-09-20T19:40:52.021Z,8.47
2018-09-20T19:43:20.252Z,8.00
2018-09-20T19:45:48.466Z,10.17
2018-09-20T19:48:16.730Z,8.33
2018-09-20T19:50:44.947Z,9.10
2018-09-20T19:53:13.187Z,9.07
2018-09-20T19:55:41.410Z,9.80
2018-09-20T19:58:09.648Z,9.27
2018-09-20T20:00:38.016Z,9.43
2018-09-20T20:03:06.432Z,8.53
2018-09-20T20:05:34.650Z,8.70
2018-09-20T20:08:02.944Z,9.30
2018-09-20T20:10:31.176Z,8.83
2018-09-20T20:12:59.615Z,9.33
2018-09-20T20:16:03.799Z,8.53
2018-09-20T20:18:32.056Z,9.53
2018-09-20T20:21:00.310Z,8.80
2018-09-20T20:23:28.660Z,9.00
2018-09-20T20:25:56.957Z,9.27
2018-09-20T20:28:25.198Z,9.80
2018-09-20T20:30:53.452Z,9.73
2018-09-20T20:33:21.706Z,9.37
2018-09-20T20:35:49.932Z,9.50
2018-09-20T20:38:18.371Z,9.67
2018-09-20T20:40:46.646Z,10.17
2018-09-20T20:43:14.903Z,10.20
2018-09-20T20:45:43.120Z,10.23
2018-09-20T20:48:11.574Z,9.83
2018-09-20T20:50:39.956Z,10.73
2018-09-20T20:53:08.268Z,10.57
2018-09-20T20:55:37.580Z,10.27
2018-09-20T20:58:05.808Z,10.60
2018-09-20T21:00:34.040Z,10.43
2018-09-20T21:03:02.319Z,10.00
2018-09-20T21:05:30.535Z,10.23
2018-09-20T21:07:58.780Z,10.37
2018-09-20T21:10:26.996Z,9.73
2018-09-20T21:12:55.236Z,10.10
2018-09-20T21:15:23.444Z,10.80
2018-09-20T21:17:51.694Z,10.33
2018-09-20T21:20:19.926Z,10.37
2018-09-20T21:22:48.151Z,10.47
2018-09-20T21:25:16.427Z,10.63
2018-09-20T21:27:44.715Z,10.47
2018-09-20T21:30:12.919Z,10.23
2018-09-20T21:32:41.169Z,10.60
2018-09-20T21:35:09.413Z,10.33
2018-09-20T21:37:37.627Z,10.50
2018-09-20T21:40:05.963Z,9.80
2018-09-20T21:42:34.164Z,10.40
2018-09-20T21:45:02.379Z,10.57
2018-09-20T21:47:30.636Z,11.20
2018-09-20T21:49:58.889Z,10.73
2018-09-20T21:52:27.118Z,9.93
2018-09-20T21:54:55.376Z,10.27
2018-09-20T21:57:23.598Z,10.63
2018-09-20T21:59:53.863Z,10.83
2018-09-20T22:02:27.762Z,10.70
2018-09-20T22:04:56.007Z,10.73
2018-09-20T22:07:24.269Z,10.50
2018-09-20T22:09:52.537Z,11.53
2018-09-20T22:12:20.755Z,11.10
2018-09-20T22:14:49.028Z,11.17
2018-09-20T22:17:17.290Z,12.03
2018-09-20T22:19:45.675Z,11.83
2018-09-20T22:22:13.892Z,11.80
2018-09-20T22:24:42.175Z,11.27
2018-09-20T22:27:10.423Z,11.50
2018-09-20T22:29:38.656Z,11.53
2018-09-20T22:32:06.866Z,11.37
2018-09-20T22:34:35.098Z,10.57
2018-09-20T22:37:03.327Z,11.10
2018-09-20T22:39:31.556Z,10.90
2018-09-20T22:41:59.807Z,10.77
2018-09-20T22:44:28.040Z,11.10
2018-09-20T22:46:56.266Z,11.63
2018-09-20T22:49:24.514Z,11.10
2018-09-20T22:51:52.770Z,11.63
2018-09-20T22:54:20.995Z,10.67
2018-09-20T22:56:49.223Z,10.87
2018-09-20T22:59:17.459Z,11.37
2018-09-20T23:01:45.671Z,12.03
2018-09-20T23:04:13.962Z,11.30
2018-09-20T23:06:42.204Z,11.70
2018-09-20T23:09:10.884Z,11.73
2018-09-20T23:11:39.537Z,10.67
2018-09-20T23:14:07.830Z,11.50
2018-09-20T23:16:36.032Z,11.83
2018-09-20T23:19:04.251Z,11.40
2018-09-20T23:21:32.486Z,11.40
2018-09-20T23:24:00.710Z,11.27
2018-09-20T23:26:28.949Z,11.17
2018-09-20T23:28:57.215Z,10.43
2018-09-20T23:31:25.459Z,11.43
2018-09-20T23:33:53.699Z,10.57
2018-09-20T23:36:21.917Z,10.10
2018-09-20T23:38:50.116Z,10.40
2018-09-20T23:41:18.371Z,9.90
2018-09-20T23:43:46.715Z,10.27
2018-09-20T23:46:14.955Z,10.40
2018-09-20T23:48:43.180Z,10.63
2018-09-20T23:51:11.429Z,11.07
2018-09-20T23:53:39.643Z,10.40
2018-09-20T23:56:07.892Z,11.00
2018-09-20T23:58:36.098Z,11.07
